createdAt,value
2018-11-04T00:00:19.882Z,101510.02
2018-11-04T00:02:48.082Z,101500.84
2018-11-04T00:05:16.187Z,101495.25
2018-11-04T00:07:44.665Z,101500.41
2018-11-04T00:10:12.459Z,101511.22
2018-11-04T00:12:40.537Z,101510.38
2018-11-04T00:15:09.637Z,101506.19
2018-11-04T00:17:37.959Z,101501.00
2018-11-04T00:20:07.602Z,101501.13
2018-11-04T00:22:35.320Z,101500.36
2018-11-04T00:25:03.137Z,101489.22
2018-11-04T00:27:30.962Z,101500.11
2018-11-04T00:29:58.714Z,101487.45
2018-11-04T00:32:26.446Z,101496.88
2018-11-04T00:34:54.201Z,101486.77
2018-11-04T00:37:21.911Z,101483.92
2018-11-04T00:39:49.658Z,101484.89
2018-11-04T00:42:17.381Z,101479.44
2018-11-04T00:44:45.076Z,101474.77
2018-11-04T00:47:12.836Z,101462.00
2018-11-04T00:49:40.561Z,101454.39
2018-11-04T00:52:08.294Z,101458.47
2018-11-04T00:54:36.067Z,101459.35
2018-11-04T00:57:03.942Z,101452.91
2018-11-04T00:59:31.707Z,101445.58
2018-11-04T01:02:00.107Z,101446.08
2018-11-04T01:04:27.824Z,101448.77
2018-11-04T01:06:55.585Z,101444.48
2018-11-04T01:09:23.319Z,101443.69
2018-11-04T01:11:51.095Z,101435.11
2018-11-04T01:14:18.845Z,101437.41
2018-11-04T01:16:46.618Z,101431.87
2018-11-04T01:19:14.343Z,101444.09
2018-11-04T01:21:42.060Z,101438.05
2018-11-04T01:24:09.829Z,101448.95
2018-11-04T01:26:37.607Z,101441.19
2018-11-04T01:29:05.689Z,101438.62
2018-11-04T01:31:33.415Z,101446.00
2018-11-04T01:34:01.231Z,101445.16
2018-11-04T01:36:28.967Z,101444.70
2018-11-04T01:38:56.709Z,101452.54
2018-11-04T01:41:24.463Z,101452.65
2018-11-04T01:43:52.184Z,101448.40
2018-11-04T01:46:19.907Z,101447.55
2018-11-04T01:48:47.643Z,101451.03
2018-11-04T01:51:15.383Z,101451.56
2018-11-04T01:53:43.087Z,101452.89
2018-11-04T01:56:10.829Z,101459.89
2018-11-04T01:58:38.553Z,101460.80
2018-11-04T02:01:06.366Z,101466.91
2018-11-04T02:03:34.089Z,101463.01
2018-11-04T02:06:01.821Z,101456.57
2018-11-04T02:08:29.606Z,101454.00
2018-11-04T02:10:57.365Z,101442.75
2018-11-04T02:13:25.102Z,101451.43
2018-11-04T02:15:52.865Z,101452.80
2018-11-04T02:18:20.592Z,101448.50
2018-11-04T02:20:48.298Z,101448.95
2018-11-04T02:23:16.039Z,101448.56
2018-11-04T02:25:43.749Z,101443.38
2018-11-04T02:28:11.585Z,101436.45
2018-11-04T02:30:39.319Z,101438.69
2018-11-04T02:33:07.051Z,101425.25
2018-11-04T02:35:34.870Z,101436.56
2018-11-04T02:38:02.624Z,101422.73
2018-11-04T02:40:30.359Z,101421.88
2018-11-04T02:42:58.212Z,101418.88
2018-11-04T02:45:25.951Z,101438.00
2018-11-04T02:47:53.730Z,101429.34
2018-11-04T02:50:21.472Z,101431.12
2018-11-04T02:52:49.202Z,101428.09
2018-11-04T02:55:16.935Z,101426.79
2018-11-04T02:57:44.663Z,101410.74
2018-11-04T03:00:13.784Z,101411.56
2018-11-04T03:02:41.970Z,101405.50
2018-11-04T03:05:10.587Z,101412.47
2018-11-04T03:07:38.367Z,101413.77
2018-11-04T03:10:06.752Z,101404.66
2018-11-04T03:12:34.526Z,101402.03
2018-11-04T03:15:02.287Z,101407.66
2018-11-04T03:17:30.039Z,101398.52
2018-11-04T03:19:57.846Z,101403.30
2018-11-04T03:22:25.735Z,101402.83
2018-11-04T03:24:53.447Z,101403.26
2018-11-04T03:27:21.222Z,101402.81
2018-11-04T03:29:48.920Z,101412.74
2018-11-04T03:32:16.976Z,101417.89
2018-11-04T03:34:44.764Z,101430.88
2018-11-04T03:37:12.478Z,101433.46
2018-11-04T03:39:40.175Z,101441.17
2018-11-04T03:42:07.939Z,101442.03
2018-11-04T03:44:35.717Z,101434.16
2018-11-04T03:47:03.441Z,101435.86
2018-11-04T03:49:31.204Z,101438.91
2018-11-04T03:51:59.067Z,101434.61
2018-11-04T03:54:26.786Z,101442.91
2018-11-04T03:56:54.510Z,101443.35
2018-11-04T03:59:22.215Z,101448.16
2018-11-04T04:01:49.980Z,101444.26
2018-11-04T04:04:17.714Z,101438.20
2018-11-04T04:06:45.415Z,101438.23
2018-11-04T04:09:13.566Z,101446.89
2018-11-04T04:11:41.290Z,101449.50
2018-11-04T04:14:09.065Z,101450.77
2018-11-04T04:16:36.765Z,101449.50
2018-11-04T04:19:04.536Z,101454.30
2018-11-04T04:21:32.275Z,101452.64
2018-11-04T04:24:00.007Z,101463.53
2018-11-04T04:26:27.789Z,101463.10
2018-11-04T04:28:55.510Z,101450.11
2018-11-04T04:31:23.243Z,101451.45
2018-11-04T04:33:50.992Z,101442.36
2018-11-04T04:36:18.838Z,101439.76
2018-11-04T04:38:46.573Z,101441.48
2018-11-04T04:41:14.297Z,101429.78
2018-11-04T04:43:42.032Z,101435.89
2018-11-04T04:46:09.772Z,101434.17
2018-11-04T04:48:37.495Z,101443.78
2018-11-04T04:51:05.443Z,101444.28
2018-11-04T04:53:33.176Z,101441.27
2018-11-04T04:56:00.954Z,101442.17
2018-11-04T04:58:28.695Z,101436.98
2018-11-04T05:00:56.426Z,101440.48
2018-11-04T05:03:24.181Z,101446.57
2018-11-04T05:05:51.871Z,101447.88
2018-11-04T05:08:19.659Z,101445.30
2018-11-04T05:10:47.415Z,101440.98
2018-11-04T05:13:15.271Z,101441.86
2018-11-04T05:15:43.101Z,101439.67
2018-11-04T05:18:10.849Z,101426.22
2018-11-04T05:20:38.589Z,101420.14
2018-11-04T05:23:06.741Z,101422.32
2018-11-04T05:25:34.462Z,101414.93
2018-11-04T05:28:02.175Z,101416.66
2018-11-04T05:30:29.938Z,101427.50
2018-11-04T05:32:57.765Z,101427.08
2018-11-04T05:35:25.540Z,101427.94
2018-11-04T05:37:53.367Z,101420.56
2018-11-04T05:40:21.107Z,101430.56
2018-11-04T05:42:48.817Z,101429.28
2018-11-04T05:45:16.645Z,101430.58
2018-11-04T05:47:44.335Z,101433.18
2018-11-04T05:50:12.109Z,101422.33
2018-11-04T05:52:39.855Z,101421.94
2018-11-04T05:55:08.211Z,101411.05
2018-11-04T05:57:35.930Z,101411.05
2018-11-04T06:00:04.022Z,101406.72
2018-11-04T06:02:31.754Z,101415.84
2018-11-04T06:04:59.531Z,101424.53
2018-11-04T06:07:27.267Z,101420.20
2018-11-04T06:09:54.991Z,101425.38
2018-11-04T06:12:22.726Z,101435.80
2018-11-04T06:14:50.462Z,101424.49
2018-11-04T06:17:18.187Z,101433.59
2018-11-04T06:19:45.970Z,101440.95
2018-11-04T06:22:13.695Z,101445.31
2018-11-04T06:24:41.404Z,101449.67
2018-11-04T06:27:09.186Z,101454.03
2018-11-04T06:29:36.902Z,101447.94
2018-11-04T06:32:04.774Z,101456.63
2018-11-04T06:34:32.559Z,101454.91
2018-11-04T06:37:00.253Z,101460.12
2018-11-04T06:39:28.047Z,101450.09
2018-11-04T06:41:55.783Z,101449.18
2018-11-04T06:44:23.483Z,101445.70
2018-11-04T06:46:51.281Z,101450.05
2018-11-04T06:49:19.009Z,101452.66
2018-11-04T06:51:46.754Z,101446.13
2018-11-04T06:54:14.549Z,101450.00
2018-11-04T06:56:42.276Z,101457.00
2018-11-04T06:59:10.043Z,101458.75
2018-11-04T07:01:37.782Z,101455.31
2018-11-04T07:04:17.060Z,101460.09
2018-11-04T07:06:44.789Z,101460.95
2018-11-04T07:09:13.138Z,101462.22
2018-11-04T07:11:40.851Z,101463.55
2018-11-04T07:14:08.655Z,101464.88
2018-11-04T07:16:36.394Z,101472.28
2018-11-04T07:19:04.158Z,101473.19
2018-11-04T07:21:32.120Z,101464.94
2018-11-04T07:23:59.872Z,101469.34
2018-11-04T07:26:27.590Z,101464.16
2018-11-04T07:28:55.303Z,101466.39
2018-11-04T07:31:23.050Z,101466.00
2018-11-04T07:33:50.861Z,101474.28
2018-11-04T07:36:18.603Z,101472.98
2018-11-04T07:38:46.338Z,101469.97
2018-11-04T07:41:14.035Z,101464.80
2018-11-04T07:43:41.821Z,101468.71
2018-11-04T07:46:09.549Z,101471.36
2018-11-04T07:48:37.260Z,101474.84
2018-11-04T07:51:05.109Z,101481.85
2018-11-04T07:53:32.851Z,101479.72
2018-11-04T07:56:00.595Z,101476.70
2018-11-04T07:58:28.321Z,101475.83
2018-11-04T08:00:56.115Z,101471.97
2018-11-04T08:03:23.831Z,101473.28
2018-11-04T08:05:51.619Z,101472.88
2018-11-04T08:08:19.520Z,101467.22
2018-11-04T08:10:47.222Z,101469.02
2018-11-04T08:13:15.001Z,101465.11
2018-11-04T08:15:42.771Z,101465.98
2018-11-04T08:18:10.516Z,101468.64
2018-11-04T08:20:38.348Z,101467.34
2018-11-04T08:23:06.059Z,101475.61
2018-11-04T08:25:33.858Z,101475.62
2018-11-04T08:28:01.621Z,101473.02
2018-11-04T08:30:29.346Z,101476.08
2018-11-04T08:32:57.094Z,101476.08
2018-11-04T08:35:24.801Z,101468.25
2018-11-04T08:37:52.579Z,101473.05
2018-11-04T08:40:20.411Z,101465.63
2018-11-04T08:42:48.075Z,101463.87
2018-11-04T08:45:15.802Z,101476.95
2018-11-04T08:47:43.559Z,101482.18
2018-11-04T08:50:11.304Z,101477.83
2018-11-04T08:52:39.173Z,101480.45
2018-11-04T08:55:07.794Z,101477.41
2018-11-04T08:57:35.500Z,101472.16
2018-11-04T09:00:03.681Z,101465.19
2018-11-04T09:02:31.419Z,101463.45
2018-11-04T09:04:59.166Z,101463.44
2018-11-04T09:07:27.220Z,101460.80
2018-11-04T09:09:55.001Z,101449.46
2018-11-04T09:12:22.742Z,101459.92
2018-11-04T09:14:50.591Z,101450.77
2018-11-04T09:17:18.364Z,101449.89
2018-11-04T09:19:46.102Z,101442.47
2018-11-04T09:22:13.880Z,101449.44
2018-11-04T09:24:41.622Z,101457.25
2018-11-04T09:27:09.376Z,101450.67
2018-11-04T09:29:37.094Z,101437.59
2018-11-04T09:32:05.141Z,101420.98
2018-11-04T09:34:32.894Z,101423.18
2018-11-04T09:37:00.619Z,101435.80
2018-11-04T09:39:28.348Z,101437.06
2018-11-04T09:41:56.135Z,101442.29
2018-11-04T09:44:23.877Z,101440.56
2018-11-04T09:46:51.583Z,101439.25
2018-11-04T09:49:19.348Z,101437.91
2018-11-04T09:51:47.055Z,101429.16
2018-11-04T09:54:14.775Z,101431.33
2018-11-04T09:56:42.537Z,101429.55
2018-11-04T09:59:10.307Z,101418.59
2018-11-04T10:01:38.028Z,101407.61
2018-11-04T10:04:05.888Z,101415.84
2018-11-04T10:06:33.662Z,101422.72
2018-11-04T10:09:01.370Z,101429.23
2018-11-04T10:11:29.102Z,101426.98
2018-11-04T10:13:56.831Z,101424.66
2018-11-04T10:16:24.682Z,101416.91
2018-11-04T10:18:52.435Z,101423.16
2018-11-04T10:21:20.186Z,101433.58
2018-11-04T10:23:47.916Z,101437.88
2018-11-04T10:26:15.645Z,101432.03
2018-11-04T10:28:43.448Z,101439.58
2018-11-04T10:31:11.222Z,101431.47
2018-11-04T10:33:38.995Z,101435.23
2018-11-04T10:36:06.798Z,101429.44
2018-11-04T10:38:34.578Z,101429.69
2018-11-04T10:41:02.322Z,101438.33
2018-11-04T10:43:30.057Z,101433.37
2018-11-04T10:45:57.787Z,101430.67
2018-11-04T10:48:25.707Z,101419.61
2018-11-04T10:50:53.423Z,101411.22
2018-11-04T10:53:21.199Z,101402.34
2018-11-04T10:55:48.971Z,101407.05
2018-11-04T10:58:16.742Z,101418.41
2018-11-04T11:00:49.917Z,101421.89
2018-11-04T11:03:17.638Z,101420.92
2018-11-04T11:05:45.352Z,101419.16
2018-11-04T11:08:13.168Z,101427.48
2018-11-04T11:10:40.893Z,101427.88
2018-11-04T11:13:08.626Z,101424.73
2018-11-04T11:15:36.382Z,101423.81
2018-11-04T11:18:04.546Z,101426.36
2018-11-04T11:20:35.645Z,101425.38
2018-11-04T11:23:03.424Z,101272.67
2018-11-04T11:25:31.175Z,101407.39
2018-11-04T11:27:58.982Z,101408.53
2018-11-04T11:30:26.843Z,101399.23
2018-11-04T11:32:54.650Z,101386.30
2018-11-04T11:35:22.370Z,101378.19
2018-11-04T11:37:50.158Z,101382.81
2018-11-04T11:40:17.966Z,101378.29
2018-11-04T11:42:45.666Z,101380.84
2018-11-04T11:45:13.402Z,101370.16
2018-11-04T11:47:41.115Z,101373.96
2018-11-04T11:50:09.137Z,101372.20
2018-11-04T11:52:36.925Z,101366.07
2018-11-04T11:55:05.190Z,101373.17
2018-11-04T11:57:32.910Z,101372.48
2018-11-04T12:00:00.615Z,101387.29
2018-11-04T12:02:28.327Z,101359.77
2018-11-04T12:04:56.055Z,101350.19
2018-11-04T12:07:23.836Z,101348.86
2018-11-04T12:09:51.694Z,101355.87
2018-11-04T12:12:19.494Z,101343.53
2018-11-04T12:14:47.257Z,101336.05
2018-11-04T12:17:15.051Z,101346.57
2018-11-04T12:19:42.838Z,101338.67
2018-11-04T12:22:10.567Z,101343.14
2018-11-04T12:24:38.375Z,101339.51
2018-11-04T12:27:06.128Z,101331.56
2018-11-04T12:29:33.893Z,101334.95
2018-11-04T12:32:01.619Z,101334.94
2018-11-04T12:34:29.375Z,101339.65
2018-11-04T12:36:57.114Z,101337.00
2018-11-04T12:39:24.861Z,101327.77
2018-11-04T12:41:52.684Z,101318.03
2018-11-04T12:44:20.422Z,101311.39
2018-11-04T12:46:48.140Z,101313.93
2018-11-04T12:49:15.895Z,101303.81
2018-11-04T12:51:43.599Z,101298.54
2018-11-04T12:54:11.291Z,101302.50
2018-11-04T12:56:39.090Z,101300.28
2018-11-04T12:59:06.871Z,101289.31
2018-11-04T13:01:34.626Z,101286.68
2018-11-04T13:04:02.401Z,101284.47
2018-11-04T13:06:30.159Z,101285.28
2018-11-04T13:08:57.962Z,101292.33
2018-11-04T13:11:26.056Z,101299.34
2018-11-04T13:13:53.797Z,101287.55
2018-11-04T13:16:21.541Z,101288.42
2018-11-04T13:18:49.330Z,101288.81
2018-11-04T13:21:17.198Z,101279.20
2018-11-04T13:23:45.021Z,101289.27
2018-11-04T13:26:12.743Z,101288.02
2018-11-04T13:28:40.505Z,101280.56
2018-11-04T13:31:08.308Z,101273.50
2018-11-04T13:33:36.033Z,101279.66
2018-11-04T13:36:04.081Z,101280.02
2018-11-04T13:38:31.854Z,101265.44
2018-11-04T13:40:59.575Z,101260.98
2018-11-04T13:43:27.370Z,101251.73
2018-11-04T13:45:55.097Z,101243.83
2018-11-04T13:48:22.873Z,101243.33
2018-11-04T13:50:50.626Z,101248.20
2018-11-04T13:53:18.339Z,101246.91
2018-11-04T13:55:46.120Z,101248.67
2018-11-04T13:58:13.875Z,101267.58
2018-11-04T14:00:41.592Z,101277.30
2018-11-04T14:03:09.404Z,101275.02
2018-11-04T14:05:37.074Z,101279.36
2018-11-04T14:08:05.144Z,101277.65
2018-11-04T14:10:32.898Z,101275.41
2018-11-04T14:13:00.760Z,101291.72
2018-11-04T14:15:28.386Z,101300.95
2018-11-04T14:17:56.159Z,101304.41
2018-11-04T14:20:23.922Z,101311.47
2018-11-04T14:22:51.689Z,101305.41
2018-11-04T14:25:19.457Z,101314.55
2018-11-04T14:27:47.236Z,101319.77
2018-11-04T14:30:15.580Z,101325.92
2018-11-04T14:32:43.837Z,101330.30
2018-11-04T14:35:11.983Z,101324.16
2018-11-04T14:37:40.856Z,101320.63
2018-11-04T14:40:10.469Z,101310.09
2018-11-04T14:42:38.899Z,101310.60
2018-11-04T14:45:07.254Z,101307.98
2018-11-04T14:47:35.058Z,101305.72
2018-11-04T14:50:02.945Z,101307.59
2018-11-04T14:52:30.675Z,101308.05
2018-11-04T14:54:58.415Z,101310.23
2018-11-04T14:57:26.129Z,101308.94
2018-11-04T14:59:53.932Z,101303.66
2018-11-04T15:02:21.721Z,101299.78
2018-11-04T15:04:49.488Z,101300.28
2018-11-04T15:07:17.240Z,101302.94
2018-11-04T15:09:45.025Z,101299.51
2018-11-04T15:12:12.770Z,101310.07
2018-11-04T15:14:40.619Z,101310.12
2018-11-04T15:17:08.347Z,101297.02
2018-11-04T15:19:36.130Z,101298.80
2018-11-04T15:22:03.943Z,101300.12
2018-11-04T15:24:31.673Z,101301.94
2018-11-04T15:26:59.397Z,101290.60
2018-11-04T15:29:27.163Z,101285.85
2018-11-04T15:31:54.899Z,101281.90
2018-11-04T15:34:22.664Z,101289.41
2018-11-04T15:36:50.417Z,101285.92
2018-11-04T15:39:18.136Z,101274.92
2018-11-04T15:41:45.913Z,101274.96
2018-11-04T15:44:13.626Z,101260.09
2018-11-04T15:46:41.364Z,101268.95
2018-11-04T15:49:09.631Z,101259.82
2018-11-04T15:51:37.422Z,101262.01
2018-11-04T15:54:05.267Z,101258.13
2018-11-04T15:56:32.975Z,101263.89
2018-11-04T15:59:00.751Z,101274.00
2018-11-04T16:01:28.551Z,101274.95
2018-11-04T16:03:56.352Z,101274.08
2018-11-04T16:06:24.145Z,101270.57
2018-11-04T16:08:52.018Z,101265.36
2018-11-04T16:11:19.746Z,101267.06
2018-11-04T16:13:47.465Z,101262.72
2018-11-04T16:16:15.198Z,101268.36
2018-11-04T16:18:43.023Z,101267.44
2018-11-04T16:21:10.860Z,101273.58
2018-11-04T16:23:38.573Z,101268.72
2018-11-04T16:26:06.346Z,101256.80
2018-11-04T16:28:34.119Z,101263.75
2018-11-04T16:31:01.818Z,101260.27
2018-11-04T16:33:29.597Z,101261.48
2018-11-04T16:35:57.313Z,101259.73
2018-11-04T16:38:25.036Z,101265.06
2018-11-04T16:40:52.853Z,101277.81
2018-11-04T16:43:20.689Z,101277.86
2018-11-04T16:45:48.350Z,101278.31
2018-11-04T16:48:16.126Z,101274.00
2018-11-04T16:50:43.885Z,101270.48
2018-11-04T16:53:11.614Z,101272.70
2018-11-04T16:55:39.375Z,101277.16
2018-11-04T16:58:07.087Z,101277.97
2018-11-04T17:00:34.796Z,101276.62
2018-11-04T17:03:02.571Z,101267.44
2018-11-04T17:05:30.534Z,101273.20
2018-11-04T17:07:58.144Z,101272.19
2018-11-04T17:10:25.851Z,101267.77
2018-11-04T17:12:53.563Z,101278.16
2018-11-04T17:15:21.256Z,101272.19
2018-11-04T17:17:48.981Z,101261.20
2018-11-04T17:20:17.838Z,101261.27
2018-11-04T17:22:45.897Z,101261.33
2018-11-04T17:25:13.876Z,101256.97
2018-11-04T17:27:41.641Z,101257.90
2018-11-04T17:30:12.753Z,101260.98
2018-11-04T17:32:40.463Z,101251.59
2018-11-04T17:35:09.551Z,101258.95
2018-11-04T17:37:37.327Z,101255.49
2018-11-04T17:40:06.710Z,101249.33
2018-11-04T17:42:34.482Z,101251.40
2018-11-04T17:45:02.200Z,101255.70
2018-11-04T17:47:29.950Z,101250.08
2018-11-04T17:49:57.795Z,101254.63
2018-11-04T17:52:25.570Z,101250.39
2018-11-04T17:54:53.355Z,101252.72
2018-11-04T17:57:21.052Z,101249.27
2018-11-04T17:59:48.826Z,101257.55
2018-11-04T18:02:16.568Z,101254.53
2018-11-04T18:04:44.267Z,101261.63
2018-11-04T18:07:11.959Z,101262.55
2018-11-04T18:09:39.689Z,101261.76
2018-11-04T18:12:07.416Z,101264.91
2018-11-04T18:14:35.128Z,101257.16
2018-11-04T18:17:02.970Z,101259.79
2018-11-04T18:19:30.742Z,101264.68
2018-11-04T18:21:58.510Z,101254.29
2018-11-04T18:24:26.325Z,101259.11
2018-11-04T18:26:54.152Z,101254.73
2018-11-04T18:29:21.945Z,101257.86
2018-11-04T18:31:49.736Z,101246.39
2018-11-04T18:34:17.586Z,101249.11
2018-11-04T18:36:45.366Z,101241.64
2018-11-04T18:39:13.123Z,101238.58
2018-11-04T18:41:40.872Z,101243.47
2018-11-04T18:44:09.065Z,101243.47
2018-11-04T18:46:36.894Z,101249.30
2018-11-04T18:49:05.129Z,101255.30
2018-11-04T18:51:32.913Z,101254.78
2018-11-04T18:54:00.769Z,101250.92
2018-11-04T18:56:28.477Z,101257.98
2018-11-04T18:58:56.490Z,101251.80
2018-11-04T19:01:24.241Z,101260.64
2018-11-04T19:03:51.986Z,101264.08
2018-11-04T19:06:19.704Z,101263.25
2018-11-04T19:08:47.466Z,101262.83
2018-11-04T19:11:15.207Z,101258.07
2018-11-04T19:13:42.921Z,101251.00
2018-11-04T19:16:10.733Z,101250.55
2018-11-04T19:18:38.426Z,101254.20
2018-11-04T19:21:06.271Z,101248.58
2018-11-04T19:23:33.984Z,101251.78
2018-11-04T19:26:01.696Z,101250.39
2018-11-04T19:28:29.441Z,101249.64
2018-11-04T19:30:57.186Z,101248.41
2018-11-04T19:33:24.887Z,101245.02
2018-11-04T19:35:52.572Z,101242.37
2018-11-04T19:38:20.289Z,101241.00
2018-11-04T19:40:48.012Z,101243.13
2018-11-04T19:43:16.502Z,101244.13
2018-11-04T19:45:44.231Z,101251.27
2018-11-04T19:48:12.012Z,101225.80
2018-11-04T19:50:39.779Z,101232.88
2018-11-04T19:53:07.638Z,101228.23
2018-11-04T19:55:35.390Z,101228.69
2018-11-04T19:58:03.214Z,101231.74
2018-11-04T20:00:30.934Z,101229.23
2018-11-04T20:02:58.622Z,101229.31
2018-11-04T20:05:26.459Z,101228.56
2018-11-04T20:07:54.133Z,101230.80
2018-11-04T20:10:21.874Z,101236.13
2018-11-04T20:12:55.357Z,101233.13
2018-11-04T20:15:23.079Z,101244.57
2018-11-04T20:17:50.789Z,101237.06
2018-11-04T20:20:20.353Z,101228.12
2018-11-04T20:22:49.180Z,101236.81
2018-11-04T20:25:22.665Z,101235.93
2018-11-04T20:27:50.451Z,101244.27
2018-11-04T20:30:18.150Z,101239.95
2018-11-04T20:32:51.555Z,101252.66
2018-11-04T20:35:19.293Z,101243.44
2018-11-04T20:37:46.997Z,101242.53
2018-11-04T20:40:20.477Z,101250.78
2018-11-04T20:42:48.206Z,101253.36
2018-11-04T20:45:16.007Z,101242.78
2018-11-04T20:47:54.739Z,101240.63
2018-11-04T20:50:40.101Z,101241.01
2018-11-04T20:53:07.900Z,101236.69
2018-11-04T20:55:41.252Z,101233.63
2018-11-04T20:58:09.127Z,101234.44
2018-11-04T21:00:36.771Z,101236.69
2018-11-04T21:03:04.588Z,101240.70
2018-11-04T21:05:32.333Z,101238.95
2018-11-04T21:08:00.118Z,101231.13
2018-11-04T21:10:27.879Z,101236.02
2018-11-04T21:12:55.577Z,101232.57
2018-11-04T21:15:23.326Z,101235.62
2018-11-04T21:17:51.022Z,101225.55
2018-11-04T21:20:18.747Z,101232.19
2018-11-04T21:22:46.492Z,101233.83
2018-11-04T21:25:14.304Z,101233.50
2018-11-04T21:27:42.141Z,101247.20
2018-11-04T21:30:11.288Z,101257.38
2018-11-04T21:32:39.002Z,101253.99
2018-11-04T21:35:07.838Z,101255.47
2018-11-04T21:37:35.766Z,101250.22
2018-11-04T21:40:03.678Z,101261.23
2018-11-04T21:42:31.508Z,101262.10
2018-11-04T21:44:59.236Z,101257.57
2018-11-04T21:47:26.977Z,101252.19
2018-11-04T21:49:54.746Z,101253.55
2018-11-04T21:52:22.459Z,101246.61
2018-11-04T21:54:50.201Z,101254.70
2018-11-04T21:57:17.911Z,101254.81
2018-11-04T21:59:45.700Z,101261.88
2018-11-04T22:02:13.553Z,101259.69
2018-11-04T22:04:41.317Z,101256.19
2018-11-04T22:07:09.074Z,101259.20
2018-11-04T22:09:36.786Z,101257.45
2018-11-04T22:12:04.874Z,101250.02
2018-11-04T22:14:32.656Z,101252.20
2018-11-04T22:17:00.384Z,101254.43
2018-11-04T22:19:28.102Z,101256.57
2018-11-04T22:21:55.878Z,101252.69
2018-11-04T22:24:23.618Z,101250.05
2018-11-04T22:26:51.403Z,101251.03
2018-11-04T22:29:19.107Z,101248.03
2018-11-04T22:31:46.812Z,101247.25
2018-11-04T22:34:14.562Z,101256.40
2018-11-04T22:36:42.382Z,101249.39
2018-11-04T22:39:10.107Z,101252.11
2018-11-04T22:41:38.714Z,101249.00
2018-11-04T22:44:06.447Z,101254.36
2018-11-04T22:46:34.162Z,101244.73
2018-11-04T22:49:01.885Z,101242.16
2018-11-04T22:51:29.594Z,101245.81
2018-11-04T22:53:57.388Z,101237.94
2018-11-04T22:56:25.267Z,101229.08
2018-11-04T22:58:52.983Z,101230.29
2018-11-04T23:01:20.729Z,101239.72
2018-11-04T23:03:48.481Z,101245.73
2018-11-04T23:06:16.258Z,101232.55
2018-11-04T23:08:43.985Z,101227.95
2018-11-04T23:11:11.719Z,101232.83
2018-11-04T23:13:39.434Z,101233.31
2018-11-04T23:16:07.161Z,101231.68
2018-11-04T23:18:34.961Z,101233.09
2018-11-04T23:21:02.687Z,101230.52
2018-11-04T23:23:30.418Z,101234.51
2018-11-04T23:25:58.178Z,101229.69
2018-11-04T23:28:25.894Z,101236.16
2018-11-04T23:30:53.600Z,101230.04
2018-11-04T23:33:21.322Z,101241.09
2018-11-04T23:35:49.024Z,101236.80
2018-11-04T23:38:16.798Z,101232.44
2018-11-04T23:40:44.519Z,101248.96
2018-11-04T23:43:12.343Z,101234.52
2018-11-04T23:45:40.222Z,101239.77
2018-11-04T23:48:07.936Z,101248.28
2018-11-04T23:50:35.631Z,101239.23
2018-11-04T23:53:03.392Z,101244.88
2018-11-04T23:55:31.142Z,101237.40
2018-11-04T23:57:58.873Z,101251.49
